createdAt,value
2023-07-08T00:01:17.279Z,13.78
2023-07-08T00:03:44.914Z,13.75
2023-07-08T00:06:20.014Z,13.68
2023-07-08T00:08:47.140Z,13.59
2023-07-08T00:11:16.580Z,13.66
2023-07-08T00:13:43.404Z,13.71
2023-07-08T00:16:15.642Z,13.78
2023-07-08T00:18:42.536Z,13.72
2023-07-08T00:21:18.094Z,13.68
2023-07-08T00:23:49.493Z,13.78
2023-07-08T00:26:42.590Z,13.97
2023-07-08T00:29:11.445Z,13.87
2023-07-08T00:31:38.154Z,13.92
2023-07-08T00:34:04.928Z,13.92
2023-07-08T00:36:32.334Z,13.80
2023-07-08T00:38:59.098Z,13.77
2023-07-08T00:41:31.978Z,13.73
2023-07-08T00:44:00.547Z,13.77
2023-07-08T00:46:34.599Z,13.72
2023-07-08T00:49:25.921Z,13.82
2023-07-08T00:51:52.618Z,13.93
2023-07-08T00:54:20.463Z,13.67
2023-07-08T00:56:47.079Z,13.54
2023-07-08T00:59:21.782Z,13.57
2023-07-08T01:01:50.079Z,13.55
2023-07-08T01:04:29.304Z,13.45
2023-07-08T01:07:00.212Z,13.42
2023-07-08T01:09:34.047Z,13.44
2023-07-08T01:12:05.722Z,13.39
2023-07-08T01:14:35.151Z,13.34
2023-07-08T01:17:01.820Z,13.40
2023-07-08T01:19:35.850Z,13.42
2023-07-08T01:22:05.844Z,13.37
2023-07-08T01:24:36.615Z,13.26
2023-07-08T01:27:06.563Z,13.14
2023-07-08T01:29:33.609Z,13.15
2023-07-08T01:32:03.678Z,13.16
2023-07-08T01:34:32.320Z,13.03
2023-07-08T01:37:01.549Z,13.00
2023-07-08T01:39:32.707Z,12.95
2023-07-08T01:42:00.187Z,12.95
2023-07-08T01:44:32.006Z,12.95
2023-07-08T01:47:09.571Z,12.83
2023-07-08T01:49:38.753Z,12.87
2023-07-08T01:52:06.163Z,12.93
2023-07-08T01:54:32.900Z,12.90
2023-07-08T01:56:59.929Z,12.82
2023-07-08T01:59:26.885Z,12.80
2023-07-08T02:01:56.413Z,12.80
2023-07-08T02:04:25.659Z,12.81
2023-07-08T02:06:57.504Z,12.75
2023-07-08T02:09:26.090Z,12.72
2023-07-08T02:11:55.902Z,12.66
2023-07-08T02:14:23.309Z,12.71
2023-07-08T02:16:50.411Z,12.67
2023-07-08T02:19:17.409Z,12.62
2023-07-08T02:21:44.151Z,12.60
2023-07-08T02:24:10.915Z,12.56
2023-07-08T02:26:37.741Z,12.53
2023-07-08T02:29:04.569Z,12.48
2023-07-08T02:31:31.345Z,12.54
2023-07-08T02:33:57.997Z,12.54
2023-07-08T02:36:24.748Z,12.45
2023-07-08T02:38:53.205Z,12.41
2023-07-08T02:41:20.044Z,12.37
2023-07-08T02:43:46.773Z,12.44
2023-07-08T02:46:13.770Z,12.48
2023-07-08T02:48:40.651Z,12.52
2023-07-08T02:51:09.781Z,12.46
2023-07-08T02:53:36.825Z,12.45
2023-07-08T02:56:03.834Z,12.62
2023-07-08T02:58:31.029Z,12.61
2023-07-08T03:01:02.467Z,12.56
2023-07-08T03:03:30.370Z,12.53
2023-07-08T03:06:06.686Z,12.59
2023-07-08T03:08:33.547Z,12.51
2023-07-08T03:11:03.344Z,12.51
2023-07-08T03:13:31.234Z,12.53
2023-07-08T03:16:00.303Z,12.50
2023-07-08T03:18:27.980Z,12.59
2023-07-08T03:20:59.016Z,12.71
2023-07-08T03:23:26.519Z,12.79
2023-07-08T03:25:54.366Z,12.89
2023-07-08T03:28:21.340Z,12.98
2023-07-08T03:30:53.748Z,13.13
2023-07-08T03:33:21.327Z,13.42
2023-07-08T03:35:48.536Z,13.51
2023-07-08T03:38:15.226Z,13.39
2023-07-08T03:40:42.086Z,13.29
2023-07-08T03:43:09.127Z,13.26
2023-07-08T03:45:36.012Z,13.13
2023-07-08T03:48:02.981Z,13.13
2023-07-08T03:50:29.794Z,13.20
2023-07-08T03:52:57.172Z,13.26
2023-07-08T03:55:23.957Z,13.48
2023-07-08T03:57:50.966Z,13.47
2023-07-08T04:00:18.149Z,13.37
2023-07-08T04:02:46.797Z,13.48
2023-07-08T04:05:22.150Z,13.58
2023-07-08T04:07:49.309Z,13.56
2023-07-08T04:10:16.354Z,13.73
2023-07-08T04:12:43.504Z,14.02
2023-07-08T04:15:11.957Z,14.90
2023-07-08T04:17:48.012Z,15.98
2023-07-08T04:20:19.746Z,16.43
2023-07-08T04:22:47.154Z,17.40
2023-07-08T04:25:15.467Z,18.17
2023-07-08T04:27:42.468Z,18.85
2023-07-08T04:30:21.217Z,19.53
2023-07-08T04:32:48.123Z,19.99
2023-07-08T04:35:15.717Z,19.82
2023-07-08T04:37:42.482Z,19.92
2023-07-08T04:40:27.482Z,20.29
2023-07-08T04:42:54.307Z,19.56
2023-07-08T04:45:21.407Z,18.72
2023-07-08T04:47:53.189Z,18.29
2023-07-08T04:50:20.592Z,17.63
2023-07-08T04:52:47.422Z,17.23
2023-07-08T04:55:14.924Z,17.10
2023-07-08T04:57:41.599Z,17.22
2023-07-08T05:00:13.207Z,17.20
2023-07-08T05:02:40.008Z,17.63
2023-07-08T05:05:06.954Z,17.61
2023-07-08T05:07:33.732Z,17.82
2023-07-08T05:10:00.432Z,17.80
2023-07-08T05:12:28.076Z,17.85
2023-07-08T05:14:54.951Z,17.87
2023-07-08T05:17:21.638Z,17.90
2023-07-08T05:19:51.961Z,18.04
2023-07-08T05:22:19.512Z,18.19
2023-07-08T05:24:48.102Z,18.41
2023-07-08T05:27:16.213Z,18.49
2023-07-08T05:29:44.324Z,18.59
2023-07-08T05:32:11.072Z,18.80
2023-07-08T05:34:37.926Z,19.03
2023-07-08T05:37:04.977Z,19.04
2023-07-08T05:39:32.860Z,19.31
2023-07-08T05:41:59.958Z,19.49
2023-07-08T05:44:26.636Z,19.57
2023-07-08T05:46:53.528Z,19.62
2023-07-08T05:49:20.368Z,19.74
2023-07-08T05:51:47.570Z,19.73
2023-07-08T05:54:15.910Z,19.93
2023-07-08T05:56:42.686Z,20.02
2023-07-08T05:59:09.420Z,20.20
2023-07-08T06:01:36.856Z,20.01
2023-07-08T06:04:03.852Z,19.86
2023-07-08T06:06:31.018Z,20.01
2023-07-08T06:08:57.763Z,20.21
2023-07-08T06:11:24.505Z,20.53
2023-07-08T06:13:51.252Z,20.76
2023-07-08T06:16:22.855Z,21.04
2023-07-08T06:18:58.667Z,21.33
2023-07-08T06:21:25.762Z,21.31
2023-07-08T06:23:52.480Z,21.41
2023-07-08T06:26:19.348Z,21.44
2023-07-08T06:28:46.061Z,21.40
2023-07-08T06:31:12.834Z,21.50
2023-07-08T06:33:39.496Z,22.91
2023-07-08T06:36:07.935Z,24.18
2023-07-08T06:38:35.208Z,25.86
2023-07-08T06:41:02.203Z,27.04
2023-07-08T06:43:29.015Z,27.51
2023-07-08T06:45:56.949Z,27.06
2023-07-08T06:48:25.415Z,27.75
2023-07-08T06:50:52.400Z,27.67
2023-07-08T06:53:19.690Z,28.38
2023-07-08T06:55:46.752Z,29.11
2023-07-08T06:58:14.616Z,27.89
2023-07-08T07:00:45.699Z,29.14
2023-07-08T07:03:13.762Z,27.71
2023-07-08T07:05:40.738Z,28.18
2023-07-08T07:08:09.014Z,27.70
2023-07-08T07:10:37.462Z,28.54
2023-07-08T07:13:04.520Z,27.34
2023-07-08T07:15:31.710Z,27.65
2023-07-08T07:17:58.573Z,26.97
2023-07-08T07:20:26.314Z,26.47
2023-07-08T07:22:53.708Z,26.42
2023-07-08T07:25:21.078Z,26.56
2023-07-08T07:27:47.882Z,26.64
2023-07-08T07:30:16.289Z,26.10
2023-07-08T07:32:44.029Z,25.96
2023-07-08T07:35:16.351Z,25.51
2023-07-08T07:37:44.081Z,24.79
2023-07-08T07:40:15.039Z,24.12
2023-07-08T07:42:43.519Z,24.05
2023-07-08T07:45:10.837Z,23.94
2023-07-08T07:47:37.981Z,24.15
2023-07-08T07:50:06.812Z,23.93
2023-07-08T07:52:34.269Z,24.13
2023-07-08T07:55:01.009Z,24.21
2023-07-08T07:57:28.081Z,24.28
2023-07-08T07:59:54.778Z,24.30
2023-07-08T08:02:21.699Z,24.49
2023-07-08T08:04:48.426Z,24.60
2023-07-08T08:07:15.205Z,24.71
2023-07-08T08:09:41.960Z,24.62
2023-07-08T08:12:11.839Z,24.87
2023-07-08T08:14:38.991Z,24.93
2023-07-08T08:17:06.751Z,24.99
2023-07-08T08:19:33.610Z,25.16
2023-07-08T08:22:00.583Z,25.29
2023-07-08T08:24:28.441Z,25.10
2023-07-08T08:26:55.620Z,24.97
2023-07-08T08:29:22.618Z,25.15
2023-07-08T08:31:49.539Z,25.20
2023-07-08T08:34:16.218Z,25.45
2023-07-08T08:36:43.866Z,25.65
2023-07-08T08:39:10.613Z,25.49
2023-07-08T08:41:40.652Z,25.51
2023-07-08T08:44:10.517Z,25.78
2023-07-08T08:46:51.085Z,25.91
2023-07-08T08:49:31.373Z,26.31
2023-07-08T08:51:59.950Z,26.67
2023-07-08T08:54:26.760Z,26.57
2023-07-08T08:57:08.193Z,26.50
2023-07-08T08:59:53.898Z,26.23
2023-07-08T09:02:43.472Z,26.40
2023-07-08T09:05:13.409Z,26.60
2023-07-08T09:08:15.816Z,26.85
2023-07-08T09:10:45.419Z,26.88
2023-07-08T09:13:25.199Z,26.69
2023-07-08T09:16:08.402Z,26.74
2023-07-08T09:18:46.384Z,26.75
2023-07-08T09:21:29.345Z,26.56
2023-07-08T09:24:01.595Z,26.93
2023-07-08T09:26:31.958Z,26.89
2023-07-08T09:28:59.061Z,26.73
2023-07-08T09:31:28.413Z,27.32
2023-07-08T09:34:23.652Z,27.53
2023-07-08T09:36:52.417Z,27.20
2023-07-08T09:39:21.717Z,27.29
2023-07-08T09:41:50.456Z,27.70
2023-07-08T09:44:29.683Z,27.74
2023-07-08T09:46:58.434Z,27.58
2023-07-08T09:49:33.141Z,27.74
2023-07-08T09:52:00.539Z,27.56
2023-07-08T09:54:27.767Z,27.83
2023-07-08T09:57:30.648Z,27.57
2023-07-08T10:00:04.478Z,28.29
2023-07-08T10:02:39.188Z,27.83
2023-07-08T10:05:29.904Z,27.54
2023-07-08T10:07:58.487Z,27.78
2023-07-08T10:10:35.714Z,28.00
2023-07-08T10:13:06.854Z,27.88
2023-07-08T10:15:38.654Z,27.81
2023-07-08T10:18:05.595Z,28.09
2023-07-08T10:21:16.195Z,28.03
2023-07-08T10:23:52.117Z,27.91
2023-07-08T10:26:28.636Z,28.43
2023-07-08T10:29:11.161Z,28.35
2023-07-08T10:31:48.114Z,28.11
2023-07-08T10:34:37.643Z,28.11
2023-07-08T10:37:26.346Z,27.65
2023-07-08T10:40:04.054Z,27.79
2023-07-08T10:43:09.679Z,27.65
2023-07-08T10:45:51.094Z,28.02
2023-07-08T10:48:18.028Z,28.12
2023-07-08T10:51:13.356Z,27.92
2023-07-08T10:54:21.518Z,28.24
2023-07-08T10:57:30.262Z,28.19
2023-07-08T11:00:24.572Z,28.37
2023-07-08T11:03:10.296Z,28.53
2023-07-08T11:06:09.368Z,28.18
2023-07-08T11:08:46.952Z,28.08
2023-07-08T11:11:33.354Z,27.98
2023-07-08T11:14:34.008Z,27.83
2023-07-08T11:17:25.762Z,27.79
2023-07-08T11:20:17.962Z,27.74
2023-07-08T11:23:10.006Z,27.95
2023-07-08T11:25:37.572Z,28.00
2023-07-08T11:28:11.866Z,28.02
2023-07-08T11:30:43.147Z,28.22
2023-07-08T11:33:15.912Z,28.51
2023-07-08T11:35:47.796Z,28.44
2023-07-08T11:38:17.629Z,28.40
2023-07-08T11:41:06.185Z,28.66
2023-07-08T11:43:51.074Z,28.54
2023-07-08T11:46:26.441Z,28.84
2023-07-08T11:48:54.480Z,28.98
2023-07-08T11:51:26.012Z,29.07
2023-07-08T11:54:04.873Z,28.69
2023-07-08T11:56:57.869Z,28.84
2023-07-08T11:59:27.496Z,28.75
2023-07-08T12:02:03.021Z,28.62
2023-07-08T12:04:33.662Z,28.45
2023-07-08T12:07:09.566Z,28.65
2023-07-08T12:09:39.981Z,28.76
2023-07-08T12:12:16.979Z,28.61
2023-07-08T12:14:43.781Z,28.61
2023-07-08T12:17:15.691Z,28.96
2023-07-08T12:19:45.730Z,29.24
2023-07-08T12:22:13.289Z,29.31
2023-07-08T12:24:42.027Z,29.08
2023-07-08T12:27:10.846Z,29.16
2023-07-08T12:29:38.714Z,29.08
2023-07-08T12:32:05.947Z,29.23
2023-07-08T12:34:33.317Z,29.03
2023-07-08T12:37:00.191Z,29.13
2023-07-08T12:39:26.837Z,29.11
2023-07-08T12:41:53.492Z,29.24
2023-07-08T12:44:26.636Z,29.04
2023-07-08T12:46:55.878Z,29.08
2023-07-08T12:49:27.915Z,29.15
2023-07-08T12:51:54.794Z,29.02
2023-07-08T12:54:23.129Z,29.41
2023-07-08T12:56:50.825Z,29.09
2023-07-08T12:59:24.066Z,29.45
2023-07-08T13:01:53.037Z,29.47
2023-07-08T13:04:20.359Z,29.08
2023-07-08T13:06:48.679Z,28.93
2023-07-08T13:09:38.796Z,28.85
2023-07-08T13:12:15.944Z,28.40
2023-07-08T13:14:44.807Z,28.64
2023-07-08T13:17:16.772Z,28.21
2023-07-08T13:19:44.645Z,28.37
2023-07-08T13:22:19.231Z,28.56
2023-07-08T13:24:46.050Z,28.40
2023-07-08T13:27:23.532Z,28.32
2023-07-08T13:29:56.916Z,28.22
2023-07-08T13:32:32.385Z,28.31
2023-07-08T13:34:59.197Z,28.27
2023-07-08T13:37:26.912Z,28.03
2023-07-08T13:39:55.480Z,27.83
2023-07-08T13:42:22.552Z,27.66
2023-07-08T13:44:50.612Z,27.90
2023-07-08T13:47:23.735Z,27.82
2023-07-08T13:49:57.159Z,27.95
2023-07-08T13:52:24.107Z,27.97
2023-07-08T13:54:57.084Z,28.23
2023-07-08T13:57:29.762Z,28.34
2023-07-08T13:59:56.438Z,28.41
2023-07-08T14:02:26.761Z,28.19
2023-07-08T14:04:54.916Z,28.08
2023-07-08T14:07:30.720Z,28.72
2023-07-08T14:09:57.796Z,28.69
2023-07-08T14:12:24.762Z,28.59
2023-07-08T14:14:51.787Z,28.33
2023-07-08T14:17:28.702Z,28.37
2023-07-08T14:19:55.684Z,28.47
2023-07-08T14:22:27.029Z,28.19
2023-07-08T14:24:54.402Z,28.04
2023-07-08T14:27:21.749Z,28.03
2023-07-08T14:29:50.973Z,27.97
2023-07-08T23:47:47.944Z,16.79
2023-07-08T23:50:23.326Z,16.83
2023-07-08T23:52:50.270Z,16.89
2023-07-08T23:55:17.292Z,16.92
2023-07-08T23:57:44.711Z,16.82
